createdAt,value
2024-01-01T00:01:35.450Z,76.56
2024-01-01T00:04:27.128Z,76.56
2024-01-01T00:07:22.496Z,76.54
2024-01-01T00:10:12.461Z,76.63
2024-01-01T00:13:02.631Z,76.56
2024-01-01T00:15:52.169Z,76.62
2024-01-01T00:18:42.562Z,76.78
2024-01-01T00:21:34.792Z,76.67
2024-01-01T00:24:25.117Z,76.47
2024-01-01T00:27:14.414Z,76.49
2024-01-01T00:30:05.833Z,76.52
2024-01-01T00:33:01.600Z,76.51
2024-01-01T00:35:43.082Z,76.75
2024-01-01T00:38:32.617Z,76.69
2024-01-01T00:41:27.060Z,76.66
2024-01-01T00:43:57.507Z,76.65
2024-01-01T00:46:50.768Z,76.67
2024-01-01T00:49:40.045Z,76.79
2024-01-01T00:52:30.329Z,76.75
2024-01-01T00:55:24.028Z,76.72
2024-01-01T00:58:31.809Z,76.80
2024-01-01T01:01:22.443Z,76.56
2024-01-01T01:04:17.127Z,76.63
2024-01-01T01:07:07.331Z,76.39
2024-01-01T01:10:00.497Z,76.58
2024-01-01T01:12:54.253Z,76.65
2024-01-01T01:15:48.823Z,76.74
2024-01-01T01:18:39.413Z,76.70
2024-01-01T01:21:30.697Z,76.75
2024-01-01T01:24:22.009Z,76.92
2024-01-01T01:27:13.981Z,76.68
2024-01-01T01:30:07.624Z,76.61
2024-01-01T01:32:58.599Z,76.76
2024-01-01T01:35:51.828Z,76.71
2024-01-01T01:38:53.016Z,76.80
2024-01-01T01:41:38.668Z,76.85
2024-01-01T01:44:29.637Z,76.83
2024-01-01T01:47:19.832Z,76.73
2024-01-01T01:51:48.540Z,76.96
2024-01-01T01:53:24.836Z,76.78
2024-01-01T01:55:59.235Z,76.64
2024-01-01T01:58:53.238Z,76.60
2024-01-01T02:01:49.442Z,76.52
2024-01-01T02:04:31.229Z,76.59
2024-01-01T02:07:22.052Z,76.74
2024-01-01T02:10:15.269Z,76.47
2024-01-01T02:13:07.509Z,76.71
2024-01-01T02:15:57.412Z,76.72
2024-01-01T02:18:47.467Z,76.75
2024-01-01T02:21:37.685Z,76.74
2024-01-01T02:24:28.189Z,76.64
2024-01-01T02:27:18.171Z,76.67
2024-01-01T02:30:11.889Z,76.82
2024-01-01T02:33:09.034Z,76.93
2024-01-01T02:35:39.709Z,76.83
2024-01-01T02:38:29.733Z,76.87
2024-01-01T02:41:21.497Z,76.86
2024-01-01T02:44:11.909Z,76.67
2024-01-01T02:47:03.420Z,76.39
2024-01-01T02:49:53.386Z,76.46
2024-01-01T02:52:44.446Z,76.72
2024-01-01T02:55:37.263Z,76.59
2024-01-01T02:58:30.562Z,76.70
2024-01-01T03:01:21.445Z,76.61
2024-01-01T03:04:12.401Z,76.75
2024-01-01T03:07:03.314Z,76.71
2024-01-01T03:09:55.876Z,76.72
2024-01-01T03:12:45.445Z,76.81
2024-01-01T03:15:36.163Z,76.86
2024-01-01T03:18:26.983Z,76.82
2024-01-01T03:21:17.201Z,76.89
2024-01-01T03:24:08.734Z,76.90
2024-01-01T03:27:02.025Z,76.76
2024-01-01T03:29:53.613Z,77.06
2024-01-01T03:32:46.881Z,77.11
2024-01-01T03:35:38.275Z,77.38
2024-01-01T03:38:30.430Z,77.33
2024-01-01T03:41:20.690Z,77.44
2024-01-01T03:44:15.044Z,77.53
2024-01-01T03:47:05.132Z,77.20
2024-01-01T03:49:57.103Z,76.93
2024-01-01T03:52:48.292Z,76.76
2024-01-01T03:55:39.908Z,76.51
2024-01-01T03:58:29.855Z,76.55
2024-01-01T04:01:22.683Z,76.74
2024-01-01T04:04:13.108Z,76.67
2024-01-01T04:07:03.712Z,76.64
2024-01-01T04:09:53.581Z,76.57
2024-01-01T04:12:43.807Z,76.74
2024-01-01T04:15:34.861Z,76.83
2024-01-01T04:18:25.600Z,76.95
2024-01-01T04:21:16.034Z,77.05
2024-01-01T04:24:08.131Z,77.03
2024-01-01T04:26:59.919Z,77.10
2024-01-01T04:29:51.119Z,77.01
2024-01-01T04:32:41.682Z,77.20
2024-01-01T04:35:32.887Z,77.17
2024-01-01T04:38:22.818Z,77.32
2024-01-01T04:41:14.005Z,77.21
2024-01-01T04:44:05.018Z,77.19
2024-01-01T04:46:56.902Z,77.35
2024-01-01T04:49:46.951Z,77.36
2024-01-01T04:52:41.950Z,77.35
2024-01-01T04:55:34.288Z,77.40
2024-01-01T04:58:25.394Z,77.52
2024-01-01T05:01:15.673Z,77.38
2024-01-01T05:04:07.291Z,77.27
2024-01-01T05:06:57.748Z,77.21
2024-01-01T05:09:47.901Z,77.21
2024-01-01T05:12:38.859Z,77.19
2024-01-01T05:15:29.816Z,77.22
2024-01-01T05:18:22.050Z,77.19
2024-01-01T05:21:12.075Z,77.36
2024-01-01T05:24:01.903Z,77.33
2024-01-01T05:26:54.176Z,77.15
2024-01-01T05:29:44.150Z,77.04
2024-01-01T05:32:35.748Z,77.08
2024-01-01T05:35:25.801Z,77.19
2024-01-01T05:38:18.101Z,77.15
2024-01-01T05:41:13.206Z,77.22
2024-01-01T05:44:06.567Z,77.15
2024-01-01T05:46:56.792Z,77.01
2024-01-01T05:49:52.279Z,77.04
2024-01-01T05:52:44.937Z,77.07
2024-01-01T05:55:36.073Z,77.09
2024-01-01T05:58:28.187Z,77.08
2024-01-01T06:01:23.497Z,77.08
2024-01-01T06:04:14.693Z,77.02
2024-01-01T06:07:04.855Z,77.03
2024-01-01T06:10:00.303Z,77.21
2024-01-01T06:12:53.458Z,77.36
2024-01-01T06:15:43.864Z,77.32
2024-01-01T06:18:36.191Z,77.01
2024-01-01T06:21:27.880Z,77.19
2024-01-01T06:24:17.670Z,77.45
2024-01-01T06:27:07.149Z,77.53
2024-01-01T06:30:01.752Z,77.42
2024-01-01T06:32:54.087Z,77.37
2024-01-01T06:35:47.040Z,77.43
2024-01-01T06:38:37.733Z,77.33
2024-01-01T06:41:28.883Z,77.16
2024-01-01T06:44:18.547Z,77.29
2024-01-01T06:47:08.783Z,77.15
2024-01-01T06:49:59.547Z,77.31
2024-01-01T06:52:56.909Z,77.50
2024-01-01T06:55:48.375Z,77.49
2024-01-01T06:58:39.231Z,77.34
2024-01-01T07:01:30.834Z,77.10
2024-01-01T07:04:22.145Z,76.93
2024-01-01T07:07:12.140Z,77.02
2024-01-01T07:10:03.207Z,77.20
2024-01-01T07:12:56.479Z,77.25
2024-01-01T07:15:48.491Z,77.45
2024-01-01T07:18:40.744Z,77.24
2024-01-01T07:21:32.417Z,77.15
2024-01-01T07:24:21.517Z,77.30
2024-01-01T07:27:14.368Z,77.27
2024-01-01T07:30:06.493Z,77.37
2024-01-01T07:32:57.463Z,77.46
2024-01-01T07:35:47.082Z,77.31
2024-01-01T07:38:38.509Z,77.30
2024-01-01T07:41:37.018Z,77.56
2024-01-01T07:44:30.142Z,77.60
2024-01-01T07:47:22.596Z,77.53
2024-01-01T07:50:22.051Z,77.54
2024-01-01T07:53:12.779Z,77.36
2024-01-01T07:56:05.528Z,77.44
2024-01-01T07:58:56.625Z,77.47
2024-01-01T08:01:47.465Z,77.64
2024-01-01T08:04:38.391Z,77.45
2024-01-01T08:07:29.693Z,77.41
2024-01-01T08:10:20.950Z,77.43
2024-01-01T08:13:07.919Z,77.52
2024-01-01T08:16:11.340Z,77.43
2024-01-01T08:19:25.328Z,77.43
2024-01-01T08:22:21.292Z,77.42
2024-01-01T08:25:22.783Z,77.43
2024-01-01T08:28:33.855Z,77.33
2024-01-01T08:31:27.432Z,77.24
2024-01-01T08:34:19.320Z,77.20
2024-01-01T08:37:42.044Z,77.42
2024-01-01T08:40:37.785Z,77.46
2024-01-01T08:43:33.821Z,77.53
2024-01-01T08:46:38.440Z,77.57
2024-01-01T08:49:20.456Z,77.65
2024-01-01T08:52:09.905Z,77.54
2024-01-01T08:54:50.826Z,77.52
2024-01-01T08:57:42.317Z,77.62
2024-01-01T09:00:33.247Z,77.65
2024-01-01T09:03:22.615Z,77.68
2024-01-01T09:06:13.059Z,77.64
2024-01-01T09:09:02.557Z,77.81
2024-01-01T09:11:54.472Z,77.86
2024-01-01T09:14:44.120Z,77.94
2024-01-01T09:17:56.698Z,77.82
2024-01-01T09:20:49.152Z,77.84
2024-01-01T09:23:42.928Z,77.84
2024-01-01T09:26:25.554Z,77.92
2024-01-01T09:29:14.915Z,77.81
2024-01-01T09:32:06.416Z,77.91
2024-01-01T09:34:55.876Z,77.80
2024-01-01T09:38:07.988Z,77.77
2024-01-01T09:40:48.239Z,77.67
2024-01-01T09:43:37.594Z,77.63
2024-01-01T09:46:34.117Z,77.69
2024-01-01T09:49:48.931Z,77.61
2024-01-01T09:52:43.971Z,77.63
2024-01-01T09:55:33.591Z,77.73
2024-01-01T09:58:23.339Z,77.71
2024-01-01T10:01:16.432Z,77.56
2024-01-01T10:04:08.092Z,77.70
2024-01-01T10:06:39.425Z,77.50
2024-01-01T10:09:29.639Z,77.62
2024-01-01T10:12:23.940Z,77.72
2024-01-01T10:15:17.429Z,77.75
2024-01-01T10:18:14.540Z,77.74
2024-01-01T10:21:14.534Z,77.72
2024-01-01T10:24:23.254Z,77.71
2024-01-01T10:27:23.185Z,77.68
2024-01-01T10:30:13.112Z,77.73
2024-01-01T10:33:17.613Z,77.95
2024-01-01T10:36:02.968Z,77.92
2024-01-01T10:38:51.582Z,77.89
2024-01-01T10:41:42.960Z,77.63
2024-01-01T10:44:32.200Z,77.50
2024-01-01T10:47:40.602Z,77.64
2024-01-01T10:51:22.658Z,77.39
2024-01-01T10:54:55.065Z,77.56
2024-01-01T10:58:06.708Z,77.28
2024-01-01T11:01:07.290Z,77.44
2024-01-01T11:03:56.757Z,77.49
2024-01-01T11:06:46.513Z,77.26
2024-01-01T11:09:37.432Z,77.27
2024-01-01T11:12:36.560Z,77.22
2024-01-01T11:16:07.901Z,77.48
2024-01-01T11:19:48.519Z,77.26
2024-01-01T11:22:41.162Z,77.36
2024-01-01T11:25:36.967Z,77.19
2024-01-01T11:28:40.327Z,77.26
2024-01-01T11:31:53.766Z,77.25
2024-01-01T11:36:03.612Z,77.36
2024-01-01T11:39:12.654Z,77.42
2024-01-01T11:42:03.470Z,77.41
2024-01-01T11:44:43.616Z,77.46
2024-01-01T11:47:33.540Z,77.43
2024-01-01T11:50:15.038Z,77.38
2024-01-01T11:53:08.490Z,77.42
2024-01-01T11:56:07.458Z,77.28
2024-01-01T11:59:14.482Z,77.24
2024-01-01T12:02:07.144Z,77.24
2024-01-01T12:04:59.901Z,77.33
2024-01-01T12:07:49.447Z,77.38
2024-01-01T12:10:37.463Z,77.36
2024-01-01T12:13:28.028Z,77.37
2024-01-01T12:16:20.367Z,77.36
2024-01-01T12:19:46.219Z,77.49
2024-01-01T12:22:35.553Z,77.49
2024-01-01T12:25:28.581Z,77.57
2024-01-01T12:28:35.151Z,77.57
2024-01-01T12:31:24.653Z,77.48
2024-01-01T12:34:18.315Z,77.41
2024-01-01T12:37:16.040Z,77.40
2024-01-01T12:40:07.999Z,77.44
2024-01-01T12:42:57.588Z,77.46
2024-01-01T12:45:48.879Z,77.31
2024-01-01T12:48:38.766Z,77.43
2024-01-01T12:51:29.715Z,77.45
2024-01-01T12:54:49.013Z,77.52
2024-01-01T12:58:34.253Z,77.52
2024-01-01T13:01:06.070Z,77.52
2024-01-01T13:04:21.151Z,77.52
2024-01-01T13:07:37.492Z,77.40
2024-01-01T13:11:37.592Z,77.45
2024-01-01T13:14:24.985Z,77.52
2024-01-01T13:17:15.376Z,77.48
2024-01-01T13:20:06.386Z,77.58
2024-01-01T13:23:17.341Z,77.49
2024-01-01T13:26:10.171Z,77.55
2024-01-01T13:29:07.558Z,77.65
2024-01-01T13:31:58.186Z,77.70
2024-01-01T13:34:50.119Z,77.66
2024-01-01T13:37:41.756Z,77.73
2024-01-01T13:40:34.918Z,77.56
2024-01-01T13:43:28.171Z,77.87
2024-01-01T13:46:17.448Z,77.99
2024-01-01T13:50:26.754Z,77.87
2024-01-01T13:52:20.742Z,77.94
2024-01-01T13:55:20.640Z,78.07
2024-01-01T13:58:13.573Z,77.84
2024-01-01T14:01:20.737Z,77.73
2024-01-01T14:04:10.713Z,77.94
2024-01-01T14:07:07.596Z,77.75
2024-01-01T14:09:59.157Z,77.70
2024-01-01T14:12:51.206Z,77.91
2024-01-01T14:16:10.563Z,77.82
2024-01-01T14:19:04.081Z,77.87
2024-01-01T14:22:06.751Z,77.99
2024-01-01T14:25:32.033Z,77.95
2024-01-01T14:28:37.163Z,77.88
2024-01-01T14:31:48.540Z,78.06
2024-01-01T14:34:41.435Z,78.11
2024-01-01T14:37:22.557Z,78.17
2024-01-01T14:40:16.487Z,78.02
2024-01-01T14:43:14.399Z,78.06
2024-01-01T14:46:31.564Z,78.00
2024-01-01T14:49:21.069Z,77.87
2024-01-01T14:52:30.544Z,77.88
2024-01-01T14:55:30.049Z,77.80
2024-01-01T14:58:25.148Z,77.68
2024-01-01T15:01:21.358Z,77.84
2024-01-01T15:04:10.652Z,78.01
2024-01-01T15:07:01.972Z,78.07
2024-01-01T15:09:55.393Z,78.21
2024-01-01T15:12:45.775Z,78.09
2024-01-01T15:15:16.981Z,77.93
2024-01-01T15:18:10.828Z,77.87
2024-01-01T15:21:01.709Z,77.90
2024-01-01T15:23:50.927Z,77.86
2024-01-01T15:26:56.834Z,77.98
2024-01-01T15:29:45.840Z,78.09
2024-01-01T15:32:38.761Z,78.11
2024-01-01T15:36:15.295Z,78.19
2024-01-01T15:39:19.347Z,78.25
2024-01-01T15:42:09.716Z,78.44
2024-01-01T15:45:05.754Z,78.29
2024-01-01T15:49:05.459Z,78.16
2024-01-01T15:51:39.319Z,78.06
2024-01-01T15:54:36.819Z,78.06
2024-01-01T15:57:29.532Z,78.09
2024-01-01T16:00:27.652Z,77.91
2024-01-01T16:03:27.750Z,78.14
2024-01-01T16:06:20.570Z,78.24
2024-01-01T16:09:14.518Z,78.27
2024-01-01T16:12:11.846Z,78.15
2024-01-01T16:15:04.493Z,78.14
2024-01-01T16:18:14.508Z,78.19
2024-01-01T16:21:09.436Z,78.16
2024-01-01T16:24:00.694Z,78.18
2024-01-01T16:27:10.629Z,78.08
2024-01-01T16:30:38.462Z,78.05
2024-01-01T16:34:08.748Z,78.05
2024-01-01T16:36:59.333Z,78.06
2024-01-01T16:39:53.164Z,78.22
2024-01-01T16:43:09.085Z,78.23
2024-01-01T16:46:09.897Z,78.16
2024-01-01T16:49:09.699Z,78.14
2024-01-01T16:52:10.693Z,78.17
2024-01-01T16:55:03.691Z,78.38
2024-01-01T16:58:13.352Z,78.33
2024-01-01T17:01:07.154Z,78.43
2024-01-01T17:04:17.752Z,78.47
2024-01-01T17:07:09.411Z,78.32
2024-01-01T17:10:06.343Z,78.29
2024-01-01T17:12:57.872Z,78.42
2024-01-01T17:15:47.409Z,78.40
2024-01-01T17:18:43.598Z,78.39
2024-01-01T17:21:58.529Z,78.25
2024-01-01T17:25:24.270Z,78.24
2024-01-01T17:28:33.981Z,78.36
2024-01-01T17:32:04.997Z,78.20
2024-01-01T17:35:08.794Z,78.26
2024-01-01T17:38:08.299Z,78.20
2024-01-01T17:41:38.170Z,78.17
2024-01-01T17:44:40.728Z,78.27
2024-01-01T17:47:50.275Z,78.22
2024-01-01T17:51:40.405Z,78.38
2024-01-01T17:54:49.577Z,78.26
2024-01-01T17:58:06.354Z,78.25
2024-01-01T18:01:22.219Z,78.23
2024-01-01T18:04:21.436Z,78.23
2024-01-01T18:07:41.337Z,78.38
2024-01-01T18:11:30.588Z,78.30
2024-01-01T18:14:46.731Z,78.46
2024-01-01T18:18:06.609Z,78.57
2024-01-01T18:21:04.783Z,78.49
2024-01-01T18:24:17.188Z,78.54
2024-01-01T18:27:34.285Z,78.50
2024-01-01T18:30:51.314Z,78.35
2024-01-01T18:33:43.328Z,78.29
2024-01-01T18:36:33.806Z,78.44
2024-01-01T18:39:35.738Z,78.37
2024-01-01T18:42:35.174Z,78.34
2024-01-01T18:45:37.643Z,78.57
2024-01-01T18:48:39.307Z,78.42
2024-01-01T18:51:33.268Z,78.38
2024-01-01T18:54:34.120Z,78.35
2024-01-01T18:57:26.699Z,78.30
2024-01-01T19:00:33.993Z,78.27
2024-01-01T19:04:01.123Z,78.55
2024-01-01T19:07:32.461Z,78.53
2024-01-01T19:10:49.202Z,78.38
2024-01-01T19:14:33.129Z,78.36
2024-01-01T19:17:45.535Z,78.38
2024-01-01T19:20:41.770Z,78.52
2024-01-01T19:23:30.883Z,78.48
2024-01-01T19:26:20.110Z,78.37
2024-01-01T19:29:09.485Z,78.58
2024-01-01T19:31:58.999Z,78.51
2024-01-01T19:34:48.274Z,78.51
2024-01-01T19:37:37.788Z,78.44
2024-01-01T19:40:30.318Z,78.27
2024-01-01T19:43:33.336Z,78.46
2024-01-01T20:07:13.050Z,78.71
2024-01-01T20:10:06.429Z,78.72
2024-01-01T20:13:08.257Z,78.59
2024-01-01T20:16:07.543Z,78.60
2024-01-01T20:19:01.400Z,78.53
2024-01-01T20:21:57.318Z,78.53
2024-01-01T20:24:51.512Z,78.39
2024-01-01T20:27:44.539Z,78.47
2024-01-01T20:30:44.577Z,78.46
2024-01-01T20:33:32.560Z,78.57
2024-01-01T20:36:30.472Z,78.43
2024-01-01T20:39:23.028Z,78.56
2024-01-01T20:42:16.119Z,78.53
2024-01-01T20:45:12.107Z,78.59
2024-01-01T20:48:12.414Z,78.70
2024-01-01T20:51:06.185Z,78.70
2024-01-01T20:54:03.799Z,78.63
2024-01-01T20:56:59.534Z,78.69
2024-01-01T21:00:44.210Z,78.78
2024-01-01T21:03:12.491Z,78.67
2024-01-01T21:06:08.021Z,78.60
2024-01-01T21:09:02.956Z,78.55
2024-01-01T21:12:09.702Z,78.58
2024-01-01T21:15:02.267Z,78.66
2024-01-01T21:17:55.203Z,78.65
2024-01-01T21:20:47.884Z,78.67
2024-01-01T21:23:40.796Z,78.71
2024-01-01T21:26:34.455Z,78.79
2024-01-01T21:29:31.095Z,78.94
2024-01-01T21:32:27.611Z,78.92
2024-01-01T21:36:19.992Z,78.78
2024-01-01T21:39:05.901Z,78.70
2024-01-01T21:42:31.052Z,78.66
2024-01-01T21:46:01.152Z,78.73
2024-01-01T21:49:08.126Z,78.75
2024-01-01T21:52:05.914Z,78.75
2024-01-01T21:54:59.745Z,78.79
2024-01-01T21:57:54.141Z,78.82
2024-01-01T22:00:49.344Z,78.75
2024-01-01T22:03:42.495Z,78.81
2024-01-01T22:06:39.484Z,78.64
2024-01-01T22:09:33.050Z,78.61
2024-01-01T22:12:28.186Z,78.78
2024-01-01T22:15:25.932Z,78.70
2024-01-01T22:18:20.327Z,78.82
2024-01-01T22:21:07.237Z,78.81
2024-01-01T22:24:01.397Z,78.76
2024-01-01T22:26:54.992Z,78.76
2024-01-01T22:29:48.125Z,78.73
2024-01-01T22:32:43.988Z,78.75
2024-01-01T22:35:51.544Z,78.78
2024-01-01T22:39:06.199Z,78.73
2024-01-01T22:42:00.405Z,78.74
2024-01-01T22:45:05.696Z,78.74
2024-01-01T22:48:01.894Z,78.69
2024-01-01T22:50:44.609Z,78.67
2024-01-01T22:53:31.870Z,78.68
2024-01-01T22:56:17.529Z,78.65
2024-01-01T22:59:11.908Z,78.66
2024-01-01T23:02:05.609Z,78.77
2024-01-01T23:04:59.992Z,78.78
2024-01-01T23:08:13.505Z,78.65
2024-01-01T23:10:58.614Z,78.82
2024-01-01T23:13:32.070Z,78.83
2024-01-01T23:16:28.485Z,78.73
2024-01-01T23:19:23.746Z,78.61
2024-01-01T23:22:20.701Z,78.56
2024-01-01T23:25:15.035Z,78.61
2024-01-01T23:28:10.987Z,78.74
2024-01-01T23:31:03.953Z,78.66
2024-01-01T23:34:05.080Z,78.66
2024-01-01T23:37:05.150Z,78.61
2024-01-01T23:39:59.211Z,78.62
2024-01-01T23:42:52.087Z,78.66
2024-01-01T23:45:47.188Z,78.70
2024-01-01T23:48:39.649Z,78.76
2024-01-01T23:51:32.273Z,78.82
2024-01-01T23:54:24.976Z,78.86
2024-01-01T23:57:18.068Z,78.77
